Eldridge, North Dakota
Current Conditions -  °F | °C
As of 2:56 AM on Thursday 23 Oct 2014 (Local Time) from KJMS Reporting Station
Clear Clear  
Wind Chill: 39°   Ceiling: Unl
Heat Index: 43°   Visibility: 10mi
Dew Point: 38°   Wind: 7mph
Humidity: 82%   Direction: 250°WSW
Pressure: 29.89"   Gusts: NA
Location:  46.8494°N, 98.7424°W
Report Text: KJMS 230756Z AUTO 25006KT 10SM CLR 06/03 A2989 RMK AO2 SLP131 T00610033
Loading
Personal Weather Stations






























Interactive Weather Map
Tropical Storm Tracking
New forecast layout! Learn more

10-Day Weather Forecast

Advertisements
Track Severe Weather on mobile